sensor_id;sensor_type;location;lat;lon;timestamp;P1;P2;P0
42002;PMS7003;27693;50.506;30.832;2024-02-26T00:00:45;11.70;7.30;6.00
42002;PMS7003;27693;50.506;30.832;2024-02-26T00:01:48;10.30;7.20;5.50
42002;PMS7003;27693;50.506;30.832;2024-02-26T00:02:50;7.10;6.20;4.30
42002;PMS7003;27693;50.506;30.832;2024-02-26T00:03:52;7.30;6.90;5.40
42002;PMS7003;27693;50.506;30.832;2024-02-26T00:04:56;10.70;7.90;5.90
42002;PMS7003;27693;50.506;30.832;2024-02-26T00:06:00;7.50;7.50;6.20
42002;PMS7003;27693;50.506;30.832;2024-02-26T00:07:02;8.30;7.10;5.00
42002;PMS7003;27693;50.506;30.832;2024-02-26T00:08:05;10.50;7.70;5.60
42002;PMS7003;27693;50.506;30.832;2024-02-26T00:09:08;10.10;8.40;6.30
42002;PMS7003;27693;50.506;30.832;2024-02-26T00:10:11;5.90;5.50;4.60
42002;PMS7003;27693;50.506;30.832;2024-02-26T00:11:16;7.20;6.70;5.60
42002;PMS7003;27693;50.506;30.832;2024-02-26T00:12:19;7.60;7.00;6.00
42002;PMS7003;27693;50.506;30.832;2024-02-26T00:13:21;7.60;6.90;5.30
42002;PMS7003;27693;50.506;30.832;2024-02-26T00:14:24;12.55;7.73;6.64
42002;PMS7003;27693;50.506;30.832;2024-02-26T00:15:27;7.80;6.00;5.20
42002;PMS7003;27693;50.506;30.832;2024-02-26T00:16:30;6.70;6.30;5.10
42002;PMS7003;27693;50.506;30.832;2024-02-26T00:17:33;8.00;7.30;5.80
42002;PMS7003;27693;50.506;30.832;2024-02-26T00:18:35;7.80;7.40;6.30
42002;PMS7003;27693;50.506;30.832;2024-02-26T00:19:37;8.10;7.20;5.70
42002;PMS7003;27693;50.506;30.832;2024-02-26T00:20:40;9.30;7.50;6.20
42002;PMS7003;27693;50.506;30.832;2024-02-26T00:21:44;7.00;6.70;5.30
42002;PMS7003;27693;50.506;30.832;2024-02-26T00:22:46;10.50;5.90;4.10
42002;PMS7003;27693;50.506;30.832;2024-02-26T00:23:49;9.50;6.90;5.00
42002;PMS7003;27693;50.506;30.832;2024-02-26T00:24:52;8.50;7.30;5.90
42002;PMS7003;27693;50.506;30.832;2024-02-26T00:25:55;7.10;5.50;4.20
42002;PMS7003;27693;50.506;30.832;2024-02-26T00:26:58;7.60;7.20;5.20
42002;PMS7003;27693;50.506;30.832;2024-02-26T00:28:01;7.70;6.20;5.10
42002;PMS7003;27693;50.506;30.832;2024-02-26T00:29:03;8.30;6.10;4.20
42002;PMS7003;27693;50.506;30.832;2024-02-26T00:30:06;8.30;7.20;5.90
42002;PMS7003;27693;50.506;30.832;2024-02-26T00:31:09;7.70;6.60;5.40
42002;PMS7003;27693;50.506;30.832;2024-02-26T00:32:12;9.10;6.80;5.10
42002;PMS7003;27693;50.506;30.832;2024-02-26T00:33:16;6.80;5.90;4.90
42002;PMS7003;27693;50.506;30.832;2024-02-26T00:34:19;6.80;6.60;5.10
42002;PMS7003;27693;50.506;30.832;2024-02-26T00:35:21;8.60;7.30;5.90
42002;PMS7003;27693;50.506;30.832;2024-02-26T00:36:24;11.00;7.20;5.80
42002;PMS7003;27693;50.506;30.832;2024-02-26T00:37:26;10.00;7.90;6.40
42002;PMS7003;27693;50.506;30.832;2024-02-26T00:38:29;6.90;6.70;5.40
42002;PMS7003;27693;50.506;30.832;2024-02-26T00:39:34;9.20;6.10;4.40
42002;PMS7003;27693;50.506;30.832;2024-02-26T00:40:38;11.10;8.40;6.20
42002;PMS7003;27693;50.506;30.832;2024-02-26T00:41:43;8.50;7.30;5.90
42002;PMS7003;27693;50.506;30.832;2024-02-26T00:42:48;8.70;6.00;5.50
42002;PMS7003;27693;50.506;30.832;2024-02-26T00:43:50;4.70;3.70;3.40
42002;PMS7003;27693;50.506;30.832;2024-02-26T00:44:53;9.60;7.90;6.00
42002;PMS7003;27693;50.506;30.832;2024-02-26T00:45:56;13.09;8.91;7.27
42002;PMS7003;27693;50.506;30.832;2024-02-26T00:47:00;10.10;8.40;6.80
42002;PMS7003;27693;50.506;30.832;2024-02-26T00:48:03;9.40;7.40;6.20
42002;PMS7003;27693;50.506;30.832;2024-02-26T00:49:07;7.80;6.70;5.50
42002;PMS7003;27693;50.506;30.832;2024-02-26T00:50:10;8.60;7.10;5.50
42002;PMS7003;27693;50.506;30.832;2024-02-26T00:51:13;11.90;9.60;7.30
42002;PMS7003;27693;50.506;30.832;2024-02-26T00:52:16;11.64;8.09;6.00
42002;PMS7003;27693;50.506;30.832;2024-02-26T00:53:19;11.10;9.30;7.10
42002;PMS7003;27693;50.506;30.832;2024-02-26T00:54:21;7.80;7.40;6.00
42002;PMS7003;27693;50.506;30.832;2024-02-26T00:55:25;13.30;8.00;6.40
42002;PMS7003;27693;50.506;30.832;2024-02-26T00:56:28;9.50;8.20;6.50
42002;PMS7003;27693;50.506;30.832;2024-02-26T00:57:30;9.50;8.10;6.40
42002;PMS7003;27693;50.506;30.832;2024-02-26T00:58:34;7.80;7.60;6.20
42002;PMS7003;27693;50.506;30.832;2024-02-26T00:59:36;7.10;6.40;5.70
42002;PMS7003;27693;50.506;30.832;2024-02-26T01:00:39;8.30;6.90;5.40
42002;PMS7003;27693;50.506;30.832;2024-02-26T01:01:41;9.10;8.80;6.50
42002;PMS7003;27693;50.506;30.832;2024-02-26T01:02:44;12.70;8.10;6.80
42002;PMS7003;27693;50.506;30.832;2024-02-26T01:03:50;8.90;8.30;6.50
42002;PMS7003;27693;50.506;30.832;2024-02-26T01:04:53;10.50;8.00;6.70
42002;PMS7003;27693;50.506;30.832;2024-02-26T01:05:56;10.20;9.10;7.00
42002;PMS7003;27693;50.506;30.832;2024-02-26T01:07:01;10.20;8.90;7.30
42002;PMS7003;27693;50.506;30.832;2024-02-26T01:08:07;10.90;8.90;5.80
42002;PMS7003;27693;50.506;30.832;2024-02-26T01:09:10;10.70;8.40;7.30
42002;PMS7003;27693;50.506;30.832;2024-02-26T01:10:12;8.50;6.90;4.70
42002;PMS7003;27693;50.506;30.832;2024-02-26T01:11:16;8.50;7.70;6.70
42002;PMS7003;27693;50.506;30.832;2024-02-26T01:12:18;6.80;6.80;5.90
42002;PMS7003;27693;50.506;30.832;2024-02-26T01:13:23;9.82;7.18;5.18
42002;PMS7003;27693;50.506;30.832;2024-02-26T01:14:25;11.40;8.50;6.60
42002;PMS7003;27693;50.506;30.832;2024-02-26T01:15:27;13.10;7.50;6.30
42002;PMS7003;27693;50.506;30.832;2024-02-26T01:16:30;11.60;7.60;5.90
42002;PMS7003;27693;50.506;30.832;2024-02-26T01:17:35;10.40;7.40;5.20
42002;PMS7003;27693;50.506;30.832;2024-02-26T01:18:37;9.50;9.30;5.90
42002;PMS7003;27693;50.506;30.832;2024-02-26T01:19:39;7.60;7.40;5.90
42002;PMS7003;27693;50.506;30.832;2024-02-26T01:20:42;9.20;7.00;5.80
42002;PMS7003;27693;50.506;30.832;2024-02-26T01:21:45;9.60;8.10;6.50
42002;PMS7003;27693;50.506;30.832;2024-02-26T01:22:49;12.50;7.70;5.70
42002;PMS7003;27693;50.506;30.832;2024-02-26T01:23:53;9.00;7.20;5.90
42002;PMS7003;27693;50.506;30.832;2024-02-26T01:24:57;10.90;8.10;6.40
42002;PMS7003;27693;50.506;30.832;2024-02-26T01:26:00;9.90;8.40;6.10
42002;PMS7003;27693;50.506;30.832;2024-02-26T01:27:04;10.30;8.30;6.60
42002;PMS7003;27693;50.506;30.832;2024-02-26T01:28:08;10.70;9.30;7.20
42002;PMS7003;27693;50.506;30.832;2024-02-26T01:29:11;11.10;8.10;6.50
42002;PMS7003;27693;50.506;30.832;2024-02-26T01:30:14;11.40;10.30;7.20
42002;PMS7003;27693;50.506;30.832;2024-02-26T01:31:20;11.00;9.00;5.90
42002;PMS7003;27693;50.506;30.832;2024-02-26T01:32:23;10.70;7.30;5.70
42002;PMS7003;27693;50.506;30.832;2024-02-26T01:33:26;11.20;7.00;5.60
42002;PMS7003;27693;50.506;30.832;2024-02-26T01:34:29;9.70;8.90;7.20
42002;PMS7003;27693;50.506;30.832;2024-02-26T01:35:31;11.70;8.00;6.10
42002;PMS7003;27693;50.506;30.832;2024-02-26T01:36:33;6.40;5.70;3.80
42002;PMS7003;27693;50.506;30.832;2024-02-26T01:37:36;9.36;9.27;7.64
42002;PMS7003;27693;50.506;30.832;2024-02-26T01:38:39;11.00;7.50;5.90
42002;PMS7003;27693;50.506;30.832;2024-02-26T01:39:41;11.50;8.20;6.10
42002;PMS7003;27693;50.506;30.832;2024-02-26T01:40:45;8.00;7.60;5.40
42002;PMS7003;27693;50.506;30.832;2024-02-26T01:41:48;10.30;8.10;6.50
42002;PMS7003;27693;50.506;30.832;2024-02-26T01:42:52;12.90;8.50;6.90
42002;PMS7003;27693;50.506;30.832;2024-02-26T01:43:55;11.10;7.90;6.10
42002;PMS7003;27693;50.506;30.832;2024-02-26T01:44:57;7.50;5.80;5.00
42002;PMS7003;27693;50.506;30.832;2024-02-26T01:45:59;11.90;10.20;8.10
42002;PMS7003;27693;50.506;30.832;2024-02-26T01:47:02;9.20;7.70;6.60
42002;PMS7003;27693;50.506;30.832;2024-02-26T01:48:06;9.90;8.00;6.30
42002;PMS7003;27693;50.506;30.832;2024-02-26T01:49:09;8.91;7.00;5.91
42002;PMS7003;27693;50.506;30.832;2024-02-26T01:50:15;10.20;9.60;7.60
42002;PMS7003;27693;50.506;30.832;2024-02-26T01:51:18;10.10;7.70;6.80
42002;PMS7003;27693;50.506;30.832;2024-02-26T01:52:20;11.50;7.90;6.40
42002;PMS7003;27693;50.506;30.832;2024-02-26T01:53:23;10.50;9.20;6.80
42002;PMS7003;27693;50.506;30.832;2024-02-26T01:54:26;11.55;7.27;5.82
42002;PMS7003;27693;50.506;30.832;2024-02-26T01:55:33;9.20;8.00;7.00
42002;PMS7003;27693;50.506;30.832;2024-02-26T01:56:37;11.80;8.70;6.20
42002;PMS7003;27693;50.506;30.832;2024-02-26T01:57:42;10.20;8.30;7.10
42002;PMS7003;27693;50.506;30.832;2024-02-26T01:58:47;9.00;7.40;5.90
42002;PMS7003;27693;50.506;30.832;2024-02-26T01:59:51;5.60;5.10;3.30
42002;PMS7003;27693;50.506;30.832;2024-02-26T02:00:55;11.70;7.10;4.80
42002;PMS7003;27693;50.506;30.832;2024-02-26T02:02:00;10.30;6.90;5.30
42002;PMS7003;27693;50.506;30.832;2024-02-26T02:03:05;7.10;6.70;5.30
42002;PMS7003;27693;50.506;30.832;2024-02-26T02:04:08;9.10;8.00;6.10
42002;PMS7003;27693;50.506;30.832;2024-02-26T02:05:12;8.50;6.70;5.30
42002;PMS7003;27693;50.506;30.832;2024-02-26T02:06:19;9.30;8.00;5.80
42002;PMS7003;27693;50.506;30.832;2024-02-26T02:07:21;7.18;6.82;5.55
42002;PMS7003;27693;50.506;30.832;2024-02-26T02:08:28;12.50;7.90;6.30
42002;PMS7003;27693;50.506;30.832;2024-02-26T02:09:32;7.60;7.20;5.50
42002;PMS7003;27693;50.506;30.832;2024-02-26T02:10:35;9.64;7.18;5.82
42002;PMS7003;27693;50.506;30.832;2024-02-26T02:11:37;9.90;7.60;6.10
42002;PMS7003;27693;50.506;30.832;2024-02-26T02:12:42;9.50;8.30;6.50
42002;PMS7003;27693;50.506;30.832;2024-02-26T02:13:46;7.70;6.20;5.40
42002;PMS7003;27693;50.506;30.832;2024-02-26T02:14:48;9.90;7.90;6.10
42002;PMS7003;27693;50.506;30.832;2024-02-26T02:15:51;8.40;6.30;5.70
42002;PMS7003;27693;50.506;30.832;2024-02-26T02:16:54;8.30;6.90;6.00
42002;PMS7003;27693;50.506;30.832;2024-02-26T02:17:57;11.55;8.09;6.27
42002;PMS7003;27693;50.506;30.832;2024-02-26T02:19:01;9.40;8.00;6.00
42002;PMS7003;27693;50.506;30.832;2024-02-26T02:20:04;6.64;5.18;4.09
42002;PMS7003;27693;50.506;30.832;2024-02-26T02:21:11;7.60;7.60;6.00
42002;PMS7003;27693;50.506;30.832;2024-02-26T02:22:14;10.60;7.30;5.80
42002;PMS7003;27693;50.506;30.832;2024-02-26T02:23:17;10.60;8.00;6.50
42002;PMS7003;27693;50.506;30.832;2024-02-26T02:24:19;11.60;7.20;6.20
42002;PMS7003;27693;50.506;30.832;2024-02-26T02:25:24;8.50;6.20;4.30
42002;PMS7003;27693;50.506;30.832;2024-02-26T02:26:27;8.30;7.00;5.20
42002;PMS7003;27693;50.506;30.832;2024-02-26T02:27:29;10.11;8.22;6.11
42002;PMS7003;27693;50.506;30.832;2024-02-26T02:28:31;8.80;7.90;5.80
42002;PMS7003;27693;50.506;30.832;2024-02-26T02:29:35;7.90;6.90;6.10
42002;PMS7003;27693;50.506;30.832;2024-02-26T02:30:39;7.50;7.20;6.00
42002;PMS7003;27693;50.506;30.832;2024-02-26T02:31:43;10.20;8.00;6.10
42002;PMS7003;27693;50.506;30.832;2024-02-26T02:32:45;10.80;8.40;6.50
42002;PMS7003;27693;50.506;30.832;2024-02-26T02:33:47;7.60;6.20;5.00
42002;PMS7003;27693;50.506;30.832;2024-02-26T02:34:50;10.18;6.09;5.36
42002;PMS7003;27693;50.506;30.832;2024-02-26T02:35:53;11.10;8.00;5.90
42002;PMS7003;27693;50.506;30.832;2024-02-26T02:36:57;8.70;4.50;2.80
42002;PMS7003;27693;50.506;30.832;2024-02-26T02:37:59;10.20;8.60;6.00
42002;PMS7003;27693;50.506;30.832;2024-02-26T02:39:03;9.80;9.00;7.30
42002;PMS7003;27693;50.506;30.832;2024-02-26T02:40:06;7.30;6.00;5.10
42002;PMS7003;27693;50.506;30.832;2024-02-26T02:41:09;11.40;9.00;6.20
42002;PMS7003;27693;50.506;30.832;2024-02-26T02:42:11;9.40;8.10;6.40
42002;PMS7003;27693;50.506;30.832;2024-02-26T02:43:13;11.80;8.60;5.30
42002;PMS7003;27693;50.506;30.832;2024-02-26T02:44:16;11.20;8.70;6.10
42002;PMS7003;27693;50.506;30.832;2024-02-26T02:45:19;8.45;7.27;5.64
42002;PMS7003;27693;50.506;30.832;2024-02-26T02:46:23;11.70;10.50;7.00
42002;PMS7003;27693;50.506;30.832;2024-02-26T02:47:25;8.70;7.80;6.60
42002;PMS7003;27693;50.506;30.832;2024-02-26T02:48:27;7.20;6.50;5.30
42002;PMS7003;27693;50.506;30.832;2024-02-26T02:49:30;11.90;10.40;6.90
42002;PMS7003;27693;50.506;30.832;2024-02-26T02:50:34;10.80;8.50;5.70
42002;PMS7003;27693;50.506;30.832;2024-02-26T02:51:38;10.20;7.90;5.90
42002;PMS7003;27693;50.506;30.832;2024-02-26T02:52:40;10.00;7.10;6.10
42002;PMS7003;27693;50.506;30.832;2024-02-26T02:53:42;10.10;7.50;6.30
42002;PMS7003;27693;50.506;30.832;2024-02-26T02:54:45;12.70;6.90;5.30
42002;PMS7003;27693;50.506;30.832;2024-02-26T02:55:49;9.80;8.10;5.80
42002;PMS7003;27693;50.506;30.832;2024-02-26T02:56:53;11.00;8.20;6.20
42002;PMS7003;27693;50.506;30.832;2024-02-26T02:57:56;9.40;6.30;5.20
42002;PMS7003;27693;50.506;30.832;2024-02-26T02:58:59;7.60;6.70;5.50
42002;PMS7003;27693;50.506;30.832;2024-02-26T03:00:03;12.80;9.10;5.90
42002;PMS7003;27693;50.506;30.832;2024-02-26T03:01:06;10.40;6.80;5.80
42002;PMS7003;27693;50.506;30.832;2024-02-26T03:02:08;8.70;8.50;6.40
42002;PMS7003;27693;50.506;30.832;2024-02-26T03:03:10;9.10;7.30;5.70
42002;PMS7003;27693;50.506;30.832;2024-02-26T03:04:13;10.40;7.90;6.90
42002;PMS7003;27693;50.506;30.832;2024-02-26T03:05:16;8.50;7.30;6.10
42002;PMS7003;27693;50.506;30.832;2024-02-26T03:06:18;5.90;4.30;2.70
42002;PMS7003;27693;50.506;30.832;2024-02-26T03:07:23;8.20;6.90;5.50
42002;PMS7003;27693;50.506;30.832;2024-02-26T03:08:25;6.00;4.10;2.50
42002;PMS7003;27693;50.506;30.832;2024-02-26T03:09:28;10.10;8.20;6.70
42002;PMS7003;27693;50.506;30.832;2024-02-26T03:10:31;11.73;9.64;6.91
42002;PMS7003;27693;50.506;30.832;2024-02-26T03:11:34;10.20;8.60;6.70
42002;PMS7003;27693;50.506;30.832;2024-02-26T03:12:40;13.40;9.90;7.40
42002;PMS7003;27693;50.506;30.832;2024-02-26T03:13:43;13.90;11.40;7.80
42002;PMS7003;27693;50.506;30.832;2024-02-26T03:14:47;9.20;7.20;4.50
42002;PMS7003;27693;50.506;30.832;2024-02-26T03:15:50;16.10;11.80;8.20
42002;PMS7003;27693;50.506;30.832;2024-02-26T03:16:55;12.00;9.40;6.50
42002;PMS7003;27693;50.506;30.832;2024-02-26T03:17:58;11.00;8.00;6.20
42002;PMS7003;27693;50.506;30.832;2024-02-26T03:19:00;9.30;7.40;6.30
42002;PMS7003;27693;50.506;30.832;2024-02-26T03:20:05;12.30;9.90;7.20
42002;PMS7003;27693;50.506;30.832;2024-02-26T03:21:10;11.50;8.20;6.40
42002;PMS7003;27693;50.506;30.832;2024-02-26T03:22:13;8.30;7.90;5.60
42002;PMS7003;27693;50.506;30.832;2024-02-26T03:23:15;11.10;9.20;7.50
42002;PMS7003;27693;50.506;30.832;2024-02-26T03:24:18;11.20;8.40;6.30
42002;PMS7003;27693;50.506;30.832;2024-02-26T03:25:23;8.30;7.50;6.20
42002;PMS7003;27693;50.506;30.832;2024-02-26T03:26:26;9.90;8.60;6.80
42002;PMS7003;27693;50.506;30.832;2024-02-26T03:27:28;10.70;8.60;6.40
42002;PMS7003;27693;50.506;30.832;2024-02-26T03:28:30;9.30;7.70;5.60
42002;PMS7003;27693;50.506;30.832;2024-02-26T03:29:35;11.90;8.50;6.40
42002;PMS7003;27693;50.506;30.832;2024-02-26T03:30:39;12.30;10.90;7.80
42002;PMS7003;27693;50.506;30.832;2024-02-26T03:31:41;9.60;7.30;5.00
42002;PMS7003;27693;50.506;30.832;2024-02-26T03:32:44;12.40;9.50;6.40
42002;PMS7003;27693;50.506;30.832;2024-02-26T03:33:46;11.10;9.00;7.00
42002;PMS7003;27693;50.506;30.832;2024-02-26T03:34:48;10.70;10.20;7.20
42002;PMS7003;27693;50.506;30.832;2024-02-26T03:35:51;11.80;7.80;6.50
42002;PMS7003;27693;50.506;30.832;2024-02-26T03:36:53;10.40;8.90;5.90
42002;PMS7003;27693;50.506;30.832;2024-02-26T03:37:55;10.10;9.00;6.30
42002;PMS7003;27693;50.506;30.832;2024-02-26T03:38:58;7.10;7.10;5.60
42002;PMS7003;27693;50.506;30.832;2024-02-26T03:40:04;14.40;10.00;7.20
42002;PMS7003;27693;50.506;30.832;2024-02-26T03:41:07;11.50;8.30;6.90
42002;PMS7003;27693;50.506;30.832;2024-02-26T03:42:10;12.30;10.60;7.40
42002;PMS7003;27693;50.506;30.832;2024-02-26T03:43:13;11.18;10.09;7.73
42002;PMS7003;27693;50.506;30.832;2024-02-26T03:44:15;8.70;6.90;5.50
42002;PMS7003;27693;50.506;30.832;2024-02-26T03:45:18;9.50;7.60;5.80
42002;PMS7003;27693;50.506;30.832;2024-02-26T03:46:20;10.50;8.90;6.60
42002;PMS7003;27693;50.506;30.832;2024-02-26T03:47:22;12.40;9.40;7.30
42002;PMS7003;27693;50.506;30.832;2024-02-26T03:48:26;10.70;9.80;7.10
42002;PMS7003;27693;50.506;30.832;2024-02-26T03:49:30;11.50;11.00;8.60
42002;PMS7003;27693;50.506;30.832;2024-02-26T03:50:32;11.91;9.27;7.18
42002;PMS7003;27693;50.506;30.832;2024-02-26T03:51:36;10.80;7.90;6.10
42002;PMS7003;27693;50.506;30.832;2024-02-26T03:52:39;10.36;8.18;6.82
42002;PMS7003;27693;50.506;30.832;2024-02-26T03:53:41;11.10;8.50;6.60
42002;PMS7003;27693;50.506;30.832;2024-02-26T03:54:43;9.30;7.60;5.90
42002;PMS7003;27693;50.506;30.832;2024-02-26T03:55:45;12.80;7.50;5.80
42002;PMS7003;27693;50.506;30.832;2024-02-26T03:56:48;7.60;4.90;3.30
42002;PMS7003;27693;50.506;30.832;2024-02-26T03:57:51;10.70;7.30;4.80
42002;PMS7003;27693;50.506;30.832;2024-02-26T03:58:54;13.00;11.80;8.60
42002;PMS7003;27693;50.506;30.832;2024-02-26T03:59:56;14.00;9.40;6.30
42002;PMS7003;27693;50.506;30.832;2024-02-26T04:00:59;8.30;7.00;5.00
42002;PMS7003;27693;50.506;30.832;2024-02-26T04:02:02;10.60;10.00;9.00
42002;PMS7003;27693;50.506;30.832;2024-02-26T04:03:04;15.50;10.70;7.30
42002;PMS7003;27693;50.506;30.832;2024-02-26T04:04:06;18.70;13.80;10.80
42002;PMS7003;27693;50.506;30.832;2024-02-26T04:05:09;13.10;11.40;8.10
42002;PMS7003;27693;50.506;30.832;2024-02-26T04:06:13;14.50;10.50;7.90
42002;PMS7003;27693;50.506;30.832;2024-02-26T04:07:21;13.90;11.50;8.50
42002;PMS7003;27693;50.506;30.832;2024-02-26T04:08:24;14.50;11.60;8.10
42002;PMS7003;27693;50.506;30.832;2024-02-26T04:09:27;13.20;11.40;9.40
42002;PMS7003;27693;50.506;30.832;2024-02-26T04:10:31;14.82;13.55;9.64
42002;PMS7003;27693;50.506;30.832;2024-02-26T04:11:33;15.90;12.10;9.00
42002;PMS7003;27693;50.506;30.832;2024-02-26T04:12:35;15.10;13.40;10.70
42002;PMS7003;27693;50.506;30.832;2024-02-26T04:13:39;12.60;11.70;9.10
42002;PMS7003;27693;50.506;30.832;2024-02-26T04:14:42;12.70;12.20;8.90
42002;PMS7003;27693;50.506;30.832;2024-02-26T04:15:44;15.20;12.30;7.80
42002;PMS7003;27693;50.506;30.832;2024-02-26T04:16:48;13.70;10.50;8.30
42002;PMS7003;27693;50.506;30.832;2024-02-26T04:17:53;18.10;11.50;9.20
42002;PMS7003;27693;50.506;30.832;2024-02-26T04:18:56;13.91;12.73;10.36
42002;PMS7003;27693;50.506;30.832;2024-02-26T04:20:00;15.70;12.70;10.00
42002;PMS7003;27693;50.506;30.832;2024-02-26T04:21:02;12.10;10.90;8.60
42002;PMS7003;27693;50.506;30.832;2024-02-26T04:22:08;14.90;12.20;8.90
42002;PMS7003;27693;50.506;30.832;2024-02-26T04:23:12;17.60;13.60;10.10
42002;PMS7003;27693;50.506;30.832;2024-02-26T04:24:15;15.60;10.50;8.90
42002;PMS7003;27693;50.506;30.832;2024-02-26T04:25:19;16.20;13.40;10.40
42002;PMS7003;27693;50.506;30.832;2024-02-26T04:26:22;9.80;9.80;6.10
42002;PMS7003;27693;50.506;30.832;2024-02-26T04:27:24;14.90;12.90;9.30
42002;PMS7003;27693;50.506;30.832;2024-02-26T04:28:26;14.60;12.10;9.40
42002;PMS7003;27693;50.506;30.832;2024-02-26T04:29:31;10.40;7.60;6.70
42002;PMS7003;27693;50.506;30.832;2024-02-26T04:30:33;13.30;10.00;5.90
42002;PMS7003;27693;50.506;30.832;2024-02-26T04:31:37;12.27;11.91;9.45
42002;PMS7003;27693;50.506;30.832;2024-02-26T04:32:39;18.10;11.40;7.90
42002;PMS7003;27693;50.506;30.832;2024-02-26T04:33:42;13.20;8.80;5.70
42002;PMS7003;27693;50.506;30.832;2024-02-26T04:34:45;15.70;12.60;9.70
42002;PMS7003;27693;50.506;30.832;2024-02-26T04:35:48;15.20;11.90;9.70
42002;PMS7003;27693;50.506;30.832;2024-02-26T04:36:50;10.80;10.80;9.10
42002;PMS7003;27693;50.506;30.832;2024-02-26T04:37:53;12.00;12.00;9.40
42002;PMS7003;27693;50.506;30.832;2024-02-26T04:38:55;13.60;9.90;8.00
42002;PMS7003;27693;50.506;30.832;2024-02-26T04:39:59;16.60;13.30;9.80
42002;PMS7003;27693;50.506;30.832;2024-02-26T04:41:03;15.00;13.30;10.50
42002;PMS7003;27693;50.506;30.832;2024-02-26T04:42:05;16.00;12.70;10.20
42002;PMS7003;27693;50.506;30.832;2024-02-26T04:43:08;17.60;14.00;10.20
42002;PMS7003;27693;50.506;30.832;2024-02-26T04:44:10;15.20;13.80;10.30
42002;PMS7003;27693;50.506;30.832;2024-02-26T04:45:12;15.30;14.60;10.20
42002;PMS7003;27693;50.506;30.832;2024-02-26T04:46:15;18.18;14.09;10.27
42002;PMS7003;27693;50.506;30.832;2024-02-26T04:47:19;16.60;12.30;9.30
42002;PMS7003;27693;50.506;30.832;2024-02-26T04:48:21;17.90;15.70;11.00
42002;PMS7003;27693;50.506;30.832;2024-02-26T04:49:26;14.30;12.50;10.50
42002;PMS7003;27693;50.506;30.832;2024-02-26T04:50:31;17.10;12.70;9.70
42002;PMS7003;27693;50.506;30.832;2024-02-26T04:51:33;21.30;16.30;11.60
42002;PMS7003;27693;50.506;30.832;2024-02-26T04:52:36;16.10;13.30;9.90
42002;PMS7003;27693;50.506;30.832;2024-02-26T04:53:40;17.50;14.00;11.80
42002;PMS7003;27693;50.506;30.832;2024-02-26T04:54:44;15.90;12.80;10.40
42002;PMS7003;27693;50.506;30.832;2024-02-26T04:55:48;21.30;14.50;11.90
42002;PMS7003;27693;50.506;30.832;2024-02-26T04:56:50;18.00;13.30;11.20
42002;PMS7003;27693;50.506;30.832;2024-02-26T04:57:53;20.00;14.90;10.70
42002;PMS7003;27693;50.506;30.832;2024-02-26T04:58:55;17.80;12.60;9.00
42002;PMS7003;27693;50.506;30.832;2024-02-26T04:59:57;14.90;13.40;10.50
42002;PMS7003;27693;50.506;30.832;2024-02-26T05:01:00;15.00;13.00;10.00
42002;PMS7003;27693;50.506;30.832;2024-02-26T05:02:03;16.80;13.70;10.60
42002;PMS7003;27693;50.506;30.832;2024-02-26T05:03:05;18.50;14.50;11.20
42002;PMS7003;27693;50.506;30.832;2024-02-26T05:04:09;17.10;14.50;10.50
42002;PMS7003;27693;50.506;30.832;2024-02-26T05:05:13;18.80;15.60;12.60
42002;PMS7003;27693;50.506;30.832;2024-02-26T05:06:18;13.80;10.00;9.40
42002;PMS7003;27693;50.506;30.832;2024-02-26T05:07:22;13.40;13.40;11.20
42002;PMS7003;27693;50.506;30.832;2024-02-26T05:08:24;16.00;13.50;11.00
42002;PMS7003;27693;50.506;30.832;2024-02-26T05:09:27;17.30;12.20;10.30
42002;PMS7003;27693;50.506;30.832;2024-02-26T05:10:29;19.70;14.50;11.60
42002;PMS7003;27693;50.506;30.832;2024-02-26T05:11:32;17.00;14.50;11.60
42002;PMS7003;27693;50.506;30.832;2024-02-26T05:12:34;17.70;13.00;11.20
42002;PMS7003;27693;50.506;30.832;2024-02-26T05:13:37;18.55;14.27;11.00
42002;PMS7003;27693;50.506;30.832;2024-02-26T05:14:39;15.20;11.10;6.20
42002;PMS7003;27693;50.506;30.832;2024-02-26T05:15:45;15.90;12.60;9.70
42002;PMS7003;27693;50.506;30.832;2024-02-26T05:16:51;14.80;11.60;8.50
42002;PMS7003;27693;50.506;30.832;2024-02-26T05:17:55;13.10;10.90;6.80
42002;PMS7003;27693;50.506;30.832;2024-02-26T05:18:58;17.90;13.40;9.80
42002;PMS7003;27693;50.506;30.832;2024-02-26T05:20:01;18.80;15.30;11.40
42002;PMS7003;27693;50.506;30.832;2024-02-26T05:21:04;11.36;11.36;9.00
42002;PMS7003;27693;50.506;30.832;2024-02-26T05:22:06;15.10;13.40;10.30
42002;PMS7003;27693;50.506;30.832;2024-02-26T05:23:09;15.70;12.40;9.80
42002;PMS7003;27693;50.506;30.832;2024-02-26T05:24:11;18.00;12.36;9.00
42002;PMS7003;27693;50.506;30.832;2024-02-26T05:25:15;19.20;14.00;11.40
42002;PMS7003;27693;50.506;30.832;2024-02-26T05:26:21;15.30;11.70;7.70
42002;PMS7003;27693;50.506;30.832;2024-02-26T05:27:24;16.40;12.10;10.20
42002;PMS7003;27693;50.506;30.832;2024-02-26T05:28:26;15.10;12.60;10.10
42002;PMS7003;27693;50.506;30.832;2024-02-26T05:29:29;17.10;13.30;10.00
42002;PMS7003;27693;50.506;30.832;2024-02-26T05:30:33;14.10;13.00;10.30
42002;PMS7003;27693;50.506;30.832;2024-02-26T05:31:37;16.80;13.20;9.90
42002;PMS7003;27693;50.506;30.832;2024-02-26T05:32:40;18.80;14.30;10.60
42002;PMS7003;27693;50.506;30.832;2024-02-26T05:33:42;15.70;13.80;11.10
42002;PMS7003;27693;50.506;30.832;2024-02-26T05:34:45;18.18;15.55;12.27
42002;PMS7003;27693;50.506;30.832;2024-02-26T05:35:47;18.60;13.30;9.70
42002;PMS7003;27693;50.506;30.832;2024-02-26T05:36:50;16.50;11.90;9.50
42002;PMS7003;27693;50.506;30.832;2024-02-26T05:37:52;15.20;13.90;10.30
42002;PMS7003;27693;50.506;30.832;2024-02-26T05:38:56;15.60;13.70;10.90
42002;PMS7003;27693;50.506;30.832;2024-02-26T05:39:59;17.10;14.30;11.30
42002;PMS7003;27693;50.506;30.832;2024-02-26T05:41:01;17.20;11.90;10.20
42002;PMS7003;27693;50.506;30.832;2024-02-26T05:42:03;19.30;14.30;10.90
42002;PMS7003;27693;50.506;30.832;2024-02-26T05:43:06;17.45;12.91;9.18
42002;PMS7003;27693;50.506;30.832;2024-02-26T05:44:10;14.40;12.30;10.20
42002;PMS7003;27693;50.506;30.832;2024-02-26T05:45:13;18.10;14.10;11.00
42002;PMS7003;27693;50.506;30.832;2024-02-26T05:46:16;16.90;13.00;9.80
42002;PMS7003;27693;50.506;30.832;2024-02-26T05:47:22;13.82;12.18;10.09
42002;PMS7003;27693;50.506;30.832;2024-02-26T05:48:24;19.00;15.40;12.10
42002;PMS7003;27693;50.506;30.832;2024-02-26T05:49:27;11.60;9.10;6.70
42002;PMS7003;27693;50.506;30.832;2024-02-26T05:50:30;13.50;11.80;10.20
42002;PMS7003;27693;50.506;30.832;2024-02-26T05:51:32;14.50;12.60;10.00
42002;PMS7003;27693;50.506;30.832;2024-02-26T05:52:35;13.10;12.60;10.50
42002;PMS7003;27693;50.506;30.832;2024-02-26T05:53:38;17.80;14.00;10.70
42002;PMS7003;27693;50.506;30.832;2024-02-26T05:54:40;16.20;13.20;10.40
42002;PMS7003;27693;50.506;30.832;2024-02-26T05:55:43;14.20;11.40;8.00
42002;PMS7003;27693;50.506;30.832;2024-02-26T05:56:45;14.30;13.20;8.30
42002;PMS7003;27693;50.506;30.832;2024-02-26T05:57:48;18.80;14.10;10.90
42002;PMS7003;27693;50.506;30.832;2024-02-26T05:58:51;14.30;13.40;10.20